MSR77 HECA-HEGN
Flight info
| Callsign | MSR77 |
|---|---|
| Flight time | 0h 59m |
| Altitude | 33000 |
| Route | DCT CVO L315 SOKOT SOKOT1A |
| Aircraft | A332/H-SDE3GHIJ2J3J5M1RVWXY/LB2D1 |
Departure
| Time | 2026-05-05 17:04 |
|---|---|
| Airport | Cairo International Airport (HECA) |
Arrival
| Time | 2026-05-05 18:03 |
|---|---|
| Airport | Hurghada International Airport (HEGN) |
| Time | Latitude | Longitude | Altitude | Speed | Heading |
|---|---|---|---|---|---|
| 2026-05-05 16:59 | 30.10963 | 31.40059 | 370 ft | 0 kts | 287° |
| 2026-05-05 17:00 | 30.11055 | 31.40313 | 370 ft | 0 kts | 18° |
| 2026-05-05 17:01 | 30.11000 | 31.40294 | 356 ft | 0 kts | 176° |
| 2026-05-05 17:02 | 30.10391 | 31.40157 | 384 ft | 0 kts | 139° |
| 2026-05-05 17:02 | 30.10380 | 31.40169 | 386 ft | 9 kts | 139° |
| 2026-05-05 17:03 | 30.10330 | 31.40224 | 391 ft | 9 kts | 126° |
| 2026-05-05 17:03 | 30.10335 | 31.40316 | 393 ft | 20 kts | 55° |
| 2026-05-05 17:03 | 30.10521 | 31.40546 | 391 ft | 76 kts | 47° |
| 2026-05-05 17:03 | 30.11102 | 31.41325 | 394 ft | 178 kts | 47° |
| 2026-05-05 17:04 | 30.11984 | 31.42619 | 1248 ft | 222 kts | 52° |
| 2026-05-05 17:04 | 30.12914 | 31.44145 | 2643 ft | 243 kts | 52° |
| 2026-05-05 17:04 | 30.13881 | 31.45823 | 3551 ft | 260 kts | 57° |
| 2026-05-05 17:04 | 30.14475 | 31.47807 | 4601 ft | 272 kts | 82° |
| 2026-05-05 17:05 | 30.14104 | 31.49964 | 5729 ft | 281 kts | 117° |
| 2026-05-05 17:05 | 30.12780 | 31.51616 | 6889 ft | 287 kts | 147° |
| 2026-05-05 17:05 | 30.10980 | 31.52627 | 8006 ft | 290 kts | 162° |
| 2026-05-05 17:05 | 30.09100 | 31.53555 | 9100 ft | 298 kts | 150° |
| 2026-05-05 17:06 | 30.07389 | 31.54947 | 10231 ft | 305 kts | 141° |
| 2026-05-05 17:06 | 30.05766 | 31.56657 | 10834 ft | 329 kts | 135° |
| 2026-05-05 17:06 | 30.04157 | 31.58682 | 11411 ft | 351 kts | 131° |
| 2026-05-05 17:06 | 30.02569 | 31.60877 | 12270 ft | 361 kts | 130° |
| 2026-05-05 17:07 | 30.00970 | 31.63151 | 13211 ft | 369 kts | 130° |
| 2026-05-05 17:07 | 29.99331 | 31.65473 | 14071 ft | 377 kts | 131° |
| 2026-05-05 17:07 | 29.97638 | 31.67834 | 14895 ft | 385 kts | 132° |
| 2026-05-05 17:07 | 29.95918 | 31.70194 | 15740 ft | 392 kts | 133° |
| 2026-05-05 17:08 | 29.94135 | 31.72613 | 16572 ft | 398 kts | 133° |
| 2026-05-05 17:08 | 29.92315 | 31.75064 | 17413 ft | 405 kts | 133° |
| 2026-05-05 17:08 | 29.90464 | 31.77547 | 18241 ft | 411 kts | 134° |
| 2026-05-05 17:08 | 29.88588 | 31.80060 | 18783 ft | 416 kts | 134° |
| 2026-05-05 17:09 | 29.86693 | 31.82598 | 19023 ft | 417 kts | 134° |
| 2026-05-05 17:09 | 29.84851 | 31.85074 | 19081 ft | 397 kts | 134° |
| 2026-05-05 17:09 | 29.83097 | 31.87439 | 19077 ft | 382 kts | 134° |
| 2026-05-05 17:09 | 29.81374 | 31.89752 | 19071 ft | 380 kts | 134° |
| 2026-05-05 17:10 | 29.79646 | 31.92063 | 19069 ft | 380 kts | 135° |
| 2026-05-05 17:10 | 29.77914 | 31.94375 | 19071 ft | 381 kts | 135° |
| 2026-05-05 17:10 | 29.76182 | 31.96686 | 19065 ft | 381 kts | 135° |
| 2026-05-05 17:10 | 29.74473 | 31.98968 | 19065 ft | 381 kts | 134° |
| 2026-05-05 17:11 | 29.72739 | 32.01284 | 19061 ft | 381 kts | 134° |
| 2026-05-05 17:11 | 29.71007 | 32.03595 | 19049 ft | 381 kts | 135° |
| 2026-05-05 17:11 | 29.69278 | 32.05902 | 19062 ft | 381 kts | 135° |
| 2026-05-05 17:11 | 29.67549 | 32.08208 | 19059 ft | 380 kts | 135° |
| 2026-05-05 17:12 | 29.65822 | 32.10509 | 19059 ft | 380 kts | 135° |
| 2026-05-05 17:12 | 29.64089 | 32.12818 | 19062 ft | 380 kts | 135° |
| 2026-05-05 17:12 | 29.62361 | 32.15120 | 19064 ft | 380 kts | 135° |
| 2026-05-05 17:12 | 29.60631 | 32.17422 | 19063 ft | 380 kts | 135° |
| 2026-05-05 17:13 | 29.58903 | 32.19720 | 19061 ft | 380 kts | 135° |
| 2026-05-05 17:13 | 29.57172 | 32.22021 | 19063 ft | 380 kts | 135° |
| 2026-05-05 17:13 | 29.56697 | 32.22651 | 19060 ft | 380 kts | 135° |
| 2026-05-05 17:22 | 29.55505 | 32.24235 | 19057 ft | 380 kts | 135° |
| 2026-05-05 17:22 | 29.53774 | 32.26534 | 19076 ft | 380 kts | 135° |
| 2026-05-05 17:22 | 29.52040 | 32.28838 | 19055 ft | 380 kts | 135° |
| 2026-05-05 17:23 | 29.50305 | 32.31139 | 19050 ft | 380 kts | 134° |
| 2026-05-05 17:23 | 29.48574 | 32.33430 | 19052 ft | 380 kts | 135° |
| 2026-05-05 17:23 | 29.46846 | 32.35723 | 19053 ft | 380 kts | 135° |
| 2026-05-05 17:23 | 29.45116 | 32.38014 | 19045 ft | 379 kts | 135° |
| 2026-05-05 17:24 | 29.43403 | 32.40275 | 19061 ft | 379 kts | 135° |
| 2026-05-05 17:24 | 29.41674 | 32.42559 | 19060 ft | 379 kts | 135° |
| 2026-05-05 17:24 | 29.39937 | 32.44853 | 19044 ft | 379 kts | 135° |
| 2026-05-05 17:24 | 29.38210 | 32.47136 | 19059 ft | 379 kts | 135° |
| 2026-05-05 17:25 | 29.36480 | 32.49420 | 19057 ft | 379 kts | 135° |
| 2026-05-05 17:25 | 29.35919 | 32.50160 | 19039 ft | 379 kts | 135° |
| 2026-05-05 17:25 | 29.33021 | 32.53984 | 19040 ft | 378 kts | 135° |
| 2026-05-05 17:25 | 29.31300 | 32.56254 | 19041 ft | 377 kts | 135° |
| 2026-05-05 17:26 | 29.29598 | 32.58495 | 19047 ft | 376 kts | 135° |
| 2026-05-05 17:26 | 29.27894 | 32.60771 | 19045 ft | 377 kts | 134° |
| 2026-05-05 17:26 | 29.26224 | 32.63105 | 19044 ft | 377 kts | 133° |
| 2026-05-05 17:26 | 29.24578 | 32.65467 | 19045 ft | 387 kts | 133° |
| 2026-05-05 17:27 | 29.22854 | 32.67955 | 19039 ft | 408 kts | 132° |
| 2026-05-05 17:27 | 29.21683 | 32.69650 | 19033 ft | 413 kts | 132° |
| 2026-05-05 17:27 | 29.19893 | 32.72244 | 19043 ft | 415 kts | 132° |
| 2026-05-05 17:27 | 29.18101 | 32.74838 | 19044 ft | 415 kts | 132° |
| 2026-05-05 17:28 | 29.15725 | 32.78268 | 19043 ft | 415 kts | 132° |
| 2026-05-05 17:28 | 29.13928 | 32.80852 | 19043 ft | 415 kts | 132° |
| 2026-05-05 17:28 | 29.12710 | 32.82600 | 19042 ft | 415 kts | 132° |
| 2026-05-05 17:28 | 29.10929 | 32.85152 | 19043 ft | 415 kts | 132° |
| 2026-05-05 17:29 | 29.09118 | 32.87744 | 19044 ft | 415 kts | 132° |
| 2026-05-05 17:29 | 29.07316 | 32.90320 | 19043 ft | 415 kts | 133° |
| 2026-05-05 17:29 | 29.05509 | 32.92902 | 19044 ft | 415 kts | 133° |
| 2026-05-05 17:29 | 29.03704 | 32.95480 | 19041 ft | 415 kts | 133° |
| 2026-05-05 17:30 | 29.01900 | 32.98055 | 19034 ft | 415 kts | 133° |
| 2026-05-05 17:30 | 29.00090 | 33.00638 | 19034 ft | 415 kts | 133° |
| 2026-05-05 17:30 | 28.98280 | 33.03217 | 19034 ft | 415 kts | 133° |
| 2026-05-05 17:30 | 28.96468 | 33.05800 | 19031 ft | 415 kts | 133° |
| 2026-05-05 17:31 | 28.94683 | 33.08342 | 19031 ft | 415 kts | 133° |
| 2026-05-05 17:31 | 28.92873 | 33.10918 | 19035 ft | 415 kts | 133° |
| 2026-05-05 17:31 | 28.91064 | 33.13491 | 19034 ft | 415 kts | 133° |
| 2026-05-05 17:31 | 28.89253 | 33.16064 | 19026 ft | 415 kts | 133° |
| 2026-05-05 17:32 | 28.87448 | 33.18629 | 19034 ft | 415 kts | 133° |
| 2026-05-05 17:32 | 28.85629 | 33.21212 | 19029 ft | 415 kts | 133° |
| 2026-05-05 17:32 | 28.83817 | 33.23782 | 19029 ft | 415 kts | 133° |
| 2026-05-05 17:32 | 28.82009 | 33.26346 | 19028 ft | 415 kts | 133° |
| 2026-05-05 17:33 | 28.80224 | 33.28878 | 19027 ft | 415 kts | 133° |
| 2026-05-05 17:33 | 28.78401 | 33.31460 | 19026 ft | 415 kts | 133° |
| 2026-05-05 17:33 | 28.76591 | 33.34021 | 19027 ft | 415 kts | 133° |
| 2026-05-05 17:33 | 28.74779 | 33.36584 | 19027 ft | 415 kts | 133° |
| 2026-05-05 17:34 | 28.72966 | 33.39147 | 19021 ft | 415 kts | 133° |
| 2026-05-05 17:34 | 28.71151 | 33.41711 | 19023 ft | 415 kts | 133° |
| 2026-05-05 17:34 | 28.69338 | 33.44272 | 19020 ft | 416 kts | 133° |
| 2026-05-05 17:34 | 28.67521 | 33.46837 | 19015 ft | 415 kts | 133° |
| 2026-05-05 17:35 | 28.65704 | 33.49399 | 19014 ft | 416 kts | 133° |
| 2026-05-05 17:35 | 28.63886 | 33.51960 | 19012 ft | 415 kts | 133° |
| 2026-05-05 17:35 | 28.62068 | 33.54518 | 19011 ft | 415 kts | 133° |
| 2026-05-05 17:35 | 28.60250 | 33.57076 | 19016 ft | 415 kts | 133° |
| 2026-05-05 17:36 | 28.58427 | 33.59637 | 19011 ft | 415 kts | 133° |
| 2026-05-05 17:36 | 28.56631 | 33.62148 | 19014 ft | 415 kts | 135° |
| 2026-05-05 17:36 | 28.54527 | 33.64320 | 19013 ft | 404 kts | 152° |
| 2026-05-05 17:36 | 28.52032 | 33.65620 | 18993 ft | 387 kts | 173° |
| 2026-05-05 17:37 | 28.49405 | 33.66007 | 19002 ft | 376 kts | 185° |
| 2026-05-05 17:37 | 28.46806 | 33.66008 | 19002 ft | 372 kts | 190° |
| 2026-05-05 17:37 | 28.44231 | 33.65803 | 19001 ft | 369 kts | 193° |
| 2026-05-05 17:37 | 28.41670 | 33.65510 | 18998 ft | 369 kts | 194° |
| 2026-05-05 17:38 | 28.39149 | 33.65203 | 18997 ft | 369 kts | 194° |
| 2026-05-05 17:38 | 28.36594 | 33.64904 | 18996 ft | 369 kts | 193° |
| 2026-05-05 17:38 | 28.34036 | 33.64629 | 18994 ft | 370 kts | 193° |
| 2026-05-05 17:38 | 28.31473 | 33.64374 | 18994 ft | 370 kts | 192° |
| 2026-05-05 17:39 | 28.28903 | 33.64135 | 18974 ft | 370 kts | 192° |
| 2026-05-05 17:39 | 28.26336 | 33.63904 | 18990 ft | 371 kts | 192° |
| 2026-05-05 17:39 | 28.23766 | 33.63678 | 18990 ft | 371 kts | 192° |
| 2026-05-05 17:39 | 28.21151 | 33.63715 | 18991 ft | 378 kts | 184° |
| 2026-05-05 17:40 | 28.18526 | 33.63966 | 18993 ft | 380 kts | 181° |
| 2026-05-05 17:40 | 28.15890 | 33.64319 | 18995 ft | 381 kts | 180° |
| 2026-05-05 17:40 | 28.13260 | 33.64728 | 18993 ft | 382 kts | 179° |
| 2026-05-05 17:40 | 28.10624 | 33.65162 | 18989 ft | 382 kts | 179° |
| 2026-05-05 17:41 | 28.07995 | 33.65599 | 18992 ft | 382 kts | 179° |
| 2026-05-05 17:41 | 28.05361 | 33.66031 | 18979 ft | 382 kts | 179° |
| 2026-05-05 17:41 | 28.02723 | 33.66456 | 18757 ft | 383 kts | 179° |
| 2026-05-05 17:41 | 28.00084 | 33.66875 | 18532 ft | 382 kts | 179° |
| 2026-05-05 17:42 | 27.97450 | 33.67290 | 18300 ft | 381 kts | 179° |
| 2026-05-05 17:42 | 27.94862 | 33.67695 | 18049 ft | 380 kts | 179° |
| 2026-05-05 17:42 | 27.92244 | 33.68104 | 17795 ft | 378 kts | 179° |
| 2026-05-05 17:42 | 27.89640 | 33.68510 | 17535 ft | 376 kts | 179° |
| 2026-05-05 17:43 | 27.87046 | 33.68915 | 17268 ft | 374 kts | 179° |
| 2026-05-05 17:43 | 27.84471 | 33.69316 | 17012 ft | 372 kts | 179° |
| 2026-05-05 17:43 | 27.81902 | 33.69716 | 16766 ft | 371 kts | 179° |
| 2026-05-05 17:43 | 27.79347 | 33.70113 | 16511 ft | 370 kts | 179° |
| 2026-05-05 17:44 | 27.76831 | 33.70503 | 16247 ft | 368 kts | 178° |
| 2026-05-05 17:44 | 27.74299 | 33.70897 | 16007 ft | 366 kts | 178° |
| 2026-05-05 17:44 | 27.71777 | 33.71289 | 15774 ft | 365 kts | 178° |
| 2026-05-05 17:44 | 27.69267 | 33.71679 | 15527 ft | 363 kts | 178° |
| 2026-05-05 17:45 | 27.66766 | 33.72068 | 15286 ft | 362 kts | 178° |
| 2026-05-05 17:45 | 27.64276 | 33.72479 | 15052 ft | 363 kts | 174° |
| 2026-05-05 17:45 | 27.61863 | 33.73388 | 14807 ft | 371 kts | 159° |
| 2026-05-05 17:45 | 27.59783 | 33.75093 | 14571 ft | 380 kts | 137° |
| 2026-05-05 17:46 | 27.58353 | 33.77620 | 14347 ft | 387 kts | 114° |
| 2026-05-05 17:46 | 27.57595 | 33.80522 | 14103 ft | 385 kts | 104° |
| 2026-05-05 17:46 | 27.57008 | 33.83466 | 13867 ft | 385 kts | 103° |
| 2026-05-05 17:46 | 27.56436 | 33.86413 | 13629 ft | 384 kts | 103° |
| 2026-05-05 17:47 | 27.55855 | 33.89350 | 13380 ft | 382 kts | 104° |
| 2026-05-05 17:47 | 27.55267 | 33.92276 | 13110 ft | 381 kts | 104° |
| 2026-05-05 17:47 | 27.54678 | 33.95177 | 12851 ft | 379 kts | 104° |
| 2026-05-05 17:47 | 27.54094 | 33.98034 | 12613 ft | 376 kts | 104° |
| 2026-05-05 17:48 | 27.53514 | 34.00858 | 12414 ft | 361 kts | 104° |
| 2026-05-05 17:48 | 27.52893 | 34.03544 | 12234 ft | 346 kts | 112° |
| 2026-05-05 17:48 | 27.51660 | 34.05753 | 11992 ft | 327 kts | 140° |
| 2026-05-05 17:48 | 27.49812 | 34.07141 | 11519 ft | 317 kts | 159° |
| 2026-05-05 17:49 | 27.47816 | 34.08153 | 11082 ft | 313 kts | 162° |
| 2026-05-05 17:49 | 27.45815 | 34.09112 | 10630 ft | 312 kts | 162° |
| 2026-05-05 17:49 | 27.43833 | 34.10073 | 10230 ft | 309 kts | 161° |
| 2026-05-05 17:49 | 27.41857 | 34.11041 | 9785 ft | 308 kts | 161° |
| 2026-05-05 17:50 | 27.39916 | 34.12003 | 9520 ft | 301 kts | 161° |
| 2026-05-05 17:50 | 27.38031 | 34.12944 | 9412 ft | 300 kts | 161° |
| 2026-05-05 17:50 | 27.36121 | 34.13899 | 9279 ft | 301 kts | 161° |
| 2026-05-05 17:50 | 27.34173 | 34.14720 | 9150 ft | 295 kts | 173° |
| 2026-05-05 17:51 | 27.32166 | 34.14833 | 9030 ft | 285 kts | 191° |
| 2026-05-05 17:51 | 27.30202 | 34.14527 | 8910 ft | 283 kts | 195° |
| 2026-05-05 17:51 | 27.28260 | 34.14152 | 8784 ft | 283 kts | 196° |
| 2026-05-05 17:51 | 27.26320 | 34.13773 | 8665 ft | 283 kts | 195° |
| 2026-05-05 17:52 | 27.24383 | 34.13399 | 8554 ft | 283 kts | 195° |
| 2026-05-05 17:52 | 27.22466 | 34.13035 | 8415 ft | 283 kts | 195° |
| 2026-05-05 17:52 | 27.20522 | 34.12668 | 8307 ft | 283 kts | 195° |
| 2026-05-05 17:52 | 27.18577 | 34.12305 | 8195 ft | 283 kts | 195° |
| 2026-05-05 17:53 | 27.16637 | 34.11941 | 8051 ft | 282 kts | 194° |
| 2026-05-05 17:53 | 27.14708 | 34.11584 | 7947 ft | 280 kts | 195° |
| 2026-05-05 17:53 | 27.12789 | 34.11228 | 7839 ft | 279 kts | 195° |
| 2026-05-05 17:53 | 27.10876 | 34.10872 | 7712 ft | 278 kts | 196° |
| 2026-05-05 17:54 | 27.08967 | 34.10514 | 7598 ft | 278 kts | 194° |
| 2026-05-05 17:54 | 27.07055 | 34.10160 | 7477 ft | 278 kts | 195° |
| 2026-05-05 17:54 | 27.05145 | 34.09803 | 7355 ft | 278 kts | 194° |
| 2026-05-05 17:54 | 27.03241 | 34.09449 | 7249 ft | 277 kts | 194° |
| 2026-05-05 17:55 | 27.01346 | 34.09088 | 7129 ft | 275 kts | 196° |
| 2026-05-05 17:55 | 26.99557 | 34.08410 | 6759 ft | 270 kts | 214° |
| 2026-05-05 17:55 | 26.98200 | 34.07018 | 6227 ft | 262 kts | 239° |
| 2026-05-05 17:55 | 26.97522 | 34.05216 | 5915 ft | 248 kts | 262° |
| 2026-05-05 17:56 | 26.97506 | 34.03336 | 5561 ft | 240 kts | 279° |
| 2026-05-05 17:56 | 26.97871 | 34.01498 | 4996 ft | 244 kts | 285° |
| 2026-05-05 17:56 | 26.98318 | 33.99672 | 4622 ft | 240 kts | 285° |
| 2026-05-05 17:56 | 26.98762 | 33.97867 | 4060 ft | 242 kts | 286° |
| 2026-05-05 17:57 | 26.99200 | 33.96053 | 3538 ft | 244 kts | 286° |
| 2026-05-05 17:57 | 26.99634 | 33.94212 | 3064 ft | 244 kts | 289° |
| 2026-05-05 17:57 | 27.00069 | 33.92366 | 2705 ft | 242 kts | 289° |
| 2026-05-05 17:57 | 27.00488 | 33.90583 | 2578 ft | 231 kts | 289° |
| 2026-05-05 17:58 | 27.00884 | 33.88881 | 2518 ft | 220 kts | 289° |
| 2026-05-05 17:58 | 27.01254 | 33.87274 | 2427 ft | 205 kts | 290° |
| 2026-05-05 17:58 | 27.01718 | 33.85858 | 2269 ft | 183 kts | 312° |
| 2026-05-05 17:58 | 27.02640 | 33.85011 | 2201 ft | 163 kts | 330° |
| 2026-05-05 17:59 | 27.03577 | 33.84447 | 2212 ft | 142 kts | 338° |
| 2026-05-05 17:59 | 27.04447 | 33.84107 | 2197 ft | 123 kts | 343° |
| 2026-05-05 17:59 | 27.05213 | 33.83856 | 2215 ft | 108 kts | 344° |
| 2026-05-05 17:59 | 27.05925 | 33.83641 | 2131 ft | 108 kts | 344° |
| 2026-05-05 18:00 | 27.06654 | 33.83424 | 1971 ft | 110 kts | 343° |
| 2026-05-05 18:00 | 27.07389 | 33.83204 | 1826 ft | 109 kts | 343° |
| 2026-05-05 18:00 | 27.08118 | 33.82986 | 1681 ft | 108 kts | 344° |
| 2026-05-05 18:00 | 27.08849 | 33.82769 | 1535 ft | 108 kts | 346° |
| 2026-05-05 18:01 | 27.09577 | 33.82553 | 1404 ft | 107 kts | 347° |
| 2026-05-05 18:01 | 27.10315 | 33.82336 | 1260 ft | 113 kts | 345° |
| 2026-05-05 18:01 | 27.11067 | 33.82114 | 1094 ft | 109 kts | 345° |
| 2026-05-05 18:01 | 27.11786 | 33.81900 | 957 ft | 106 kts | 348° |
| 2026-05-05 18:02 | 27.12507 | 33.81686 | 824 ft | 107 kts | 349° |
| 2026-05-05 18:02 | 27.13230 | 33.81472 | 678 ft | 108 kts | 348° |
| 2026-05-05 18:02 | 27.13947 | 33.81260 | 542 ft | 105 kts | 348° |
| 2026-05-05 18:02 | 27.14660 | 33.81050 | 404 ft | 106 kts | 347° |
| 2026-05-05 18:03 | 27.15374 | 33.80843 | 302 ft | 107 kts | 347° |
| 2026-05-05 18:03 | 27.16070 | 33.80612 | 98 ft | 104 kts | 348° |
| 2026-05-05 18:03 | 27.16691 | 33.80440 | 35 ft | 63 kts | 347° |
| 2026-05-05 18:03 | 27.16816 | 33.80404 | 35 ft | 1 kts | 352° |
| 2026-05-05 18:04 | 27.16840 | 33.80410 | 35 ft | 7 kts | 18° |
| 2026-05-05 18:04 | 27.16882 | 33.80467 | 36 ft | 13 kts | 70° |
| 2026-05-05 18:04 | 27.17854 | 33.80639 | 41 ft | 0 kts | 75° |